Kinnakeet, North Carolina
Current Conditions -  °F | °C
As of 6:51 AM on Thursday 23 Oct 2014 (Local Time) from KHSE Reporting Station
Broken Clouds Broken Clouds  
Wind Chill: 54°   Ceiling: 4000
Heat Index: 54°   Visibility: 10mi
Dew Point: 46°   Wind: 16mph
Humidity: 75%   Direction: 320°NW
Pressure: 29.9"   Gusts: 25mph
Location:  35.3519°N, 75.5108°W
Report Text: KHSE 231051Z AUTO 32014G22KT 10SM FEW024 BKN040 12/08 A2990 RMK AO2 SLP125 T01220078 TSNO
Loading
Personal Weather Stations






























Interactive Weather Map
Tropical Storm Tracking
New forecast layout! Learn more

10-Day Weather Forecast

Advertisements
Track Severe Weather on mobile